KELP

El Paso International Airport

El Paso, Texas, USA
KELP 241720Z 2418/2518 26008KT P6SM FEW080 FEW250
Issued Valid From Valid To
Sep-24 @ 17:20 UTC
(2 hours ago)
Sep-24 @ 18:00 UTC
(an hour ago)
Sep-25 @ 18:00 UTC
(in 23 hours)
Sep-24 @ 18:00 to Sep-25 @ 18:00
KELP 241720Z 2418/2518 26008KT P6SM FEW080 FEW250
Wind Visibility Clouds
260° at 8 knots Greater than 6 miles
  • Few at 8,000' AGL
  • Few at 25,000' AGL
KELP 241720Z 2418/2518 26008KT P6SM FEW080 FEW250
Issued Sep-24 @ 17:20 UTC
(2 hours ago)
Valid From Sep-24 @ 18:00 UTC
(an hour ago)
Valid To Sep-25 @ 18:00 UTC
(in 23 hours)
Sep-24 @ 18:00 - Sep-25 @ 18:00
Wind Visibility
260° at 8 knots Greater than 6 miles
Clouds
  • Few at 8,000' AGL
  • Few at 25,000' AGL